PATK/TKA METAR and TAF weather

Enter ICAO airport designator
Station Type Date Time Source
PATK METAR 2020/01/23 17:53 UTC NOAA

PATK 231753Z 04004KT 10SM CLR M25/M28 A2952 RMK AO2 SLP009 I6000 T12501283 11228 21272 56011


Station Type Date Time Source
PATK Decoded METAR 2020/01/23 17:53 UTC NOAA

TALKEETNA AIRPORT, AK, United States (PATK) 62-19N 150-06W 109M
Jan 23, 2020 - 12:53 PM EST / 2020.01.23 1753 UTC
Wind: from the NE (040 degrees) at 5 MPH (4 KT):0
Visibility: 10 mile(s):0
Sky conditions: clear
Temperature: -13.0 F (-25.0 C)
Windchill: -25 F (-32 C):2
Dew Point: -18.9 F (-28.3 C)
Relative Humidity: 73%
Pressure (altimeter): 29.52 in. Hg (999 hPa)
Pressure tendency: 0.03 inches (1.1 hPa) lower than three hours ago
ob: PATK 231753Z 04004KT 10SM CLR M25/M28 A2952 RMK AO2 SLP009 I6000 T12501283 11228 21272 56011
cycle: 18

Station Type Date Time Source
PATK TAF 2020/01/23 18:36 UTC NOAA

TAF PATK 231735Z 2318/2418 05003KT P6SM SKC
FM240000 05010KT P6SM SKC

Example: see airport list